Time;durP1;ratioP1;P1;durP2;ratioP2;P2;SDS_P1;SDS_P2;PMS_P1;PMS_P2;Temp;Humidity;BMP_temperature;BMP_pressure;BME280_temperature;BME280_humidity;BME280_pressure;Samples;Min_cycle;Max_cycle;Signal;HPM_P1;HPM_P2
2023/07/14 00:01:25;;;;;;;;;;;;;;;;;;4897380;29;1085;-53
2023/07/14 00:03:53;;;;;;;;;;;;;;;;;;4897048;29;1070;-55
2023/07/14 00:06:20;;;;;;;;;;;;;;;;;;4898040;29;905;-55
2023/07/14 00:08:49;;;;;;;;;;;;;;;;;;4897692;29;1087;-56
2023/07/14 00:11:23;;;;;;;;;;;;;;;;;;4897801;29;1903;-53
2023/07/14 00:13:52;;;;;;;;;;;;;;;;;;4897923;29;1172;-54
2023/07/14 00:16:20;;;;;;;;;;;;;;;;;;4897440;29;1053;-53
2023/07/14 00:18:48;;;;;;;;;;;;;;;;;;4897992;29;1323;-53
2023/07/14 00:21:25;;;;;;;;;;;;;;;;;;4897742;29;1278;-56
2023/07/14 00:24:00;;;;;;;;;;;;;;;;;;4895136;29;1437;-55
2023/07/14 00:26:28;;;;;;;;;;;;;;;;;;4878778;29;1138;-53
2023/07/14 00:28:59;;;;;;;;;;;;;;;;;;4861962;29;1114;-54
2023/07/14 00:31:27;;;;;;;;;;;;;;;;;;4878320;29;1911;-54
2023/07/14 00:33:54;;;;;;;;;;;;;;;;;;4878771;29;1116;-55
2023/07/14 00:36:23;;;;;;;;;;;;;;;;;;4862241;29;1294;-54
2023/07/14 00:38:51;;;;;;;;;;;;;;;;;;4878387;29;1211;-55
2023/07/14 00:41:21;;;;;;;;;;;;;;;;;;4861840;29;1580;-55
2023/07/14 00:43:49;;;;;;;;;;;;;;;;;;4878660;29;1309;-54
2023/07/14 00:46:23;;;;;;;;;;;;;;;;;;4878009;29;1154;-51
2023/07/14 00:48:53;;;;;;;;;;;;;;;;;;4861910;29;1556;-53
2023/07/14 00:51:21;;;;;;;;;;;;;;;;;;4878615;29;1982;-55
2023/07/14 00:53:48;;;;;;;;;;;;;;;;;;4877772;29;1429;-55
2023/07/14 00:56:22;;;;;;;;;;;;;;;;;;4878471;29;1137;-52
2023/07/14 00:58:51;;;;;;;;;;;;;;;;;;4861721;29;1551;-52
2023/07/14 01:01:23;;;;;;;;;;;;;;;;;;4878311;29;1148;-55
2023/07/14 01:03:51;;;;;;;;;;;;;;;;;;4878540;29;1235;-55
2023/07/14 01:06:33;;;;;;;;;;;;;;;;;;4878136;29;995;-55
2023/07/14 01:09:18;;;;;;;;;;;;;;;;;;4860912;29;1168;-54
2023/07/14 01:11:49;;;;;;;;;;;;;;;;;;4878036;29;1915;-55
2023/07/14 01:14:22;;;;;;;;;;;;;;;;;;4877985;29;897;-53
2023/07/14 01:16:51;;;;;;;;;;;;;;;;;;4877594;29;1154;-54
2023/07/14 01:19:40;;;;;;;;;;;;;;;;;;4878114;29;1238;-55
2023/07/14 01:22:26;;;;;;;;;;;;;;;;;;4871607;29;1344;-54
2023/07/14 01:24:56;;;;;;;;;;;;;;;;;;4878032;29;1387;-55
2023/07/14 01:27:24;;;;;;;;;;;;;;;;;;4860805;29;1295;-55
2023/07/14 01:29:56;;;;;;;;;;;;;;;;;;4877649;29;1165;-53
2023/07/14 01:32:24;;;;;;;;;;;;;;;;;;4861207;29;1985;-54
2023/07/14 01:34:55;;;;;;;;;;;;;;;;;;4861317;29;1208;-55
2023/07/14 01:37:23;;;;;;;;;;;;;;;;;;4877641;29;1306;-55
2023/07/14 01:39:51;;;;;;;;;;;;;;;;;;4861057;29;1311;-55
2023/07/14 01:42:19;;;;;;;;;;;;;;;;;;4877825;29;1184;-55
2023/07/14 01:44:48;;;;;;;;;;;;;;;;;;4877360;29;1417;-51
2023/07/14 01:47:16;;;;;;;;;;;;;;;;;;4876390;29;2515;-54
2023/07/14 01:49:49;;;;;;;;;;;;;;;;;;4877677;29;1176;-55
2023/07/14 01:52:24;;;;;;;;;;;;;;;;;;4876993;29;1986;-54
2023/07/14 01:54:53;;;;;;;;;;;;;;;;;;4877957;29;1176;-55
2023/07/14 01:57:22;;;;;;;;;;;;;;;;;;4877620;29;1062;-54
2023/07/14 01:59:54;;;;;;;;;;;;;;;;;;4861255;29;1465;-54
2023/07/14 02:02:24;;;;;;;;;;;;;;;;;;4877564;29;1002;-55
2023/07/14 02:04:52;;;;;;;;;;;;;;;;;;4877661;29;1079;-54
2023/07/14 02:07:19;;;;;;;;;;;;;;;;;;4860499;29;1755;-55
2023/07/14 02:09:48;;;;;;;;;;;;;;;;;;4860797;29;1271;-55
2023/07/14 02:12:19;;;;;;;;;;;;;;;;;;4877390;29;1917;-53
2023/07/14 02:14:50;;;;;;;;;;;;;;;;;;4876982;29;1130;-53
2023/07/14 02:17:26;;;;;;;;;;;;;;;;;;4860448;29;1226;-56
2023/07/14 02:19:54;;;;;;;;;;;;;;;;;;4860978;29;1292;-55
2023/07/14 02:22:22;;;;;;;;;;;;;;;;;;4876999;29;1110;-55
2023/07/14 02:24:49;;;;;;;;;;;;;;;;;;4851368;29;2275;-54
2023/07/14 02:27:17;;;;;;;;;;;;;;;;;;4858678;29;1280;-52
2023/07/14 02:29:44;;;;;;;;;;;;;;;;;;4858003;29;1104;-55
2023/07/14 02:32:17;;;;;;;;;;;;;;;;;;4859414;29;1907;-53
2023/07/14 02:34:51;;;;;;;;;;;;;;;;;;4858631;29;1071;-54
2023/07/14 02:38:00;;;;;;;;;;;;;;;;;;4858601;29;1029;-52
2023/07/14 02:40:28;;;;;;;;;;;;;;;;;;4862440;29;877;-54
2023/07/14 02:42:55;;;;;;;;;;;;;;;;;;4862490;29;1365;-53
2023/07/14 02:45:23;;;;;;;;;;;;;;;;;;4861452;29;1075;-54
2023/07/14 02:47:53;;;;;;;;;;;;;;;;;;4845346;29;1213;-54
2023/07/14 02:50:21;;;;;;;;;;;;;;;;;;4845102;29;1327;-52
2023/07/14 02:52:49;;;;;;;;;;;;;;;;;;4844636;29;2165;-54
2023/07/14 02:55:16;;;;;;;;;;;;;;;;;;4861799;29;1157;-57
2023/07/14 02:57:43;;;;;;;;;;;;;;;;;;4861907;29;1306;-51
2023/07/14 03:00:11;;;;;;;;;;;;;;;;;;4844881;29;1548;-51
2023/07/14 03:02:38;;;;;;;;;;;;;;;;;;4861826;29;1076;-51
2023/07/14 03:05:06;;;;;;;;;;;;;;;;;;4861633;29;1107;-53
2023/07/14 03:07:36;;;;;;;;;;;;;;;;;;4861363;29;1078;-52
2023/07/14 03:10:04;;;;;;;;;;;;;;;;;;4861744;29;1248;-51
2023/07/14 03:12:31;;;;;;;;;;;;;;;;;;4862279;29;1911;-49
2023/07/14 03:14:59;;;;;;;;;;;;;;;;;;4861341;29;1213;-51
2023/07/14 03:17:26;;;;;;;;;;;;;;;;;;4861414;29;1288;-52
2023/07/14 03:19:53;;;;;;;;;;;;;;;;;;4844833;29;1300;-49
2023/07/14 03:22:23;;;;;;;;;;;;;;;;;;4844677;29;1432;-54
2023/07/14 03:24:50;;;;;;;;;;;;;;;;;;4870808;29;1272;-54
2023/07/14 03:27:17;;;;;;;;;;;;;;;;;;4878966;29;2126;-51
2023/07/14 03:29:45;;;;;;;;;;;;;;;;;;4879672;29;1047;-49
2023/07/14 03:32:12;;;;;;;;;;;;;;;;;;4879605;29;1907;-54
2023/07/14 03:34:43;;;;;;;;;;;;;;;;;;4879662;29;1246;-48
2023/07/14 03:37:10;;;;;;;;;;;;;;;;;;4879348;29;829;-49
2023/07/14 03:39:37;;;;;;;;;;;;;;;;;;4879782;29;1369;-49
2023/07/14 03:42:04;;;;;;;;;;;;;;;;;;4879862;29;1061;-49
2023/07/14 03:44:32;;;;;;;;;;;;;;;;;;4879272;29;1347;-48
2023/07/14 03:47:02;;;;;;;;;;;;;;;;;;4880170;29;1032;-52
2023/07/14 03:49:30;;;;;;;;;;;;;;;;;;4877535;29;1177;-51
2023/07/14 03:51:57;;;;;;;;;;;;;;;;;;4877747;29;1907;-51
2023/07/14 03:54:25;;;;;;;;;;;;;;;;;;4879550;29;1165;-51
2023/07/14 03:56:52;;;;;;;;;;;;;;;;;;4879633;29;1234;-50
2023/07/14 03:59:20;;;;;;;;;;;;;;;;;;4879022;29;1057;-53
2023/07/14 04:01:48;;;;;;;;;;;;;;;;;;4879454;29;959;-52
2023/07/14 04:04:15;;;;;;;;;;;;;;;;;;4879365;29;1722;-53
2023/07/14 04:06:42;;;;;;;;;;;;;;;;;;4878844;29;1321;-52
2023/07/14 04:09:10;;;;;;;;;;;;;;;;;;4877981;29;1108;-53
2023/07/14 04:11:37;;;;;;;;;;;;;;;;;;4878993;29;1982;-51
2023/07/14 04:14:06;;;;;;;;;;;;;;;;;;4878951;29;1175;-51
2023/07/14 04:16:35;;;;;;;;;;;;;;;;;;4879502;29;1064;-50
2023/07/14 04:19:05;;;;;;;;;;;;;;;;;;4879456;29;1293;-53
2023/07/14 04:21:33;;;;;;;;;;;;;;;;;;4878857;29;1215;-53
2023/07/14 04:24:01;;;;;;;;;;;;;;;;;;4887693;29;1267;-49
2023/07/14 04:26:29;;;;;;;;;;;;;;;;;;4878777;29;1111;-53
2023/07/14 04:28:56;;;;;;;;;;;;;;;;;;4878672;29;1594;-53
2023/07/14 04:31:23;;;;;;;;;;;;;;;;;;4878813;29;1990;-52
2023/07/14 04:33:51;;;;;;;;;;;;;;;;;;4878536;29;1263;-53
2023/07/14 04:36:19;;;;;;;;;;;;;;;;;;4879002;29;1165;-53
2023/07/14 04:39:04;;;;;;;;;;;;;;;;;;4878577;29;999;-52
2023/07/14 04:41:31;;;;;;;;;;;;;;;;;;4878585;29;1052;-52
2023/07/14 04:44:16;;;;;;;;;;;;;;;;;;4878084;29;1142;-54
2023/07/14 04:46:46;;;;;;;;;;;;;;;;;;4878518;29;891;-52
2023/07/14 04:49:17;;;;;;;;;;;;;;;;;;4879057;29;953;-53
2023/07/14 04:51:44;;;;;;;;;;;;;;;;;;4878067;29;1986;-51
2023/07/14 04:54:12;;;;;;;;;;;;;;;;;;4878484;29;1157;-52
2023/07/14 04:56:39;;;;;;;;;;;;;;;;;;4878712;29;1074;-53
2023/07/14 04:59:07;;;;;;;;;;;;;;;;;;4878094;29;1083;-52
2023/07/14 05:01:34;;;;;;;;;;;;;;;;;;4878086;29;1204;-53
2023/07/14 05:04:01;;;;;;;;;;;;;;;;;;4878634;29;1005;-50
2023/07/14 05:06:29;;;;;;;;;;;;;;;;;;4877733;29;1246;-53
2023/07/14 05:08:56;;;;;;;;;;;;;;;;;;4878579;29;1108;-54
2023/07/14 05:11:23;;;;;;;;;;;;;;;;;;4878187;29;1911;-54
2023/07/14 05:13:51;;;;;;;;;;;;;;;;;;4877738;29;1151;-53
2023/07/14 05:16:19;;;;;;;;;;;;;;;;;;4877873;29;1094;-53
2023/07/14 05:18:46;;;;;;;;;;;;;;;;;;4885151;29;1155;-55
2023/07/14 05:21:13;;;;;;;;;;;;;;;;;;4896330;29;1329;-53
2023/07/14 05:23:41;;;;;;;;;;;;;;;;;;4896546;29;1390;-53
2023/07/14 05:26:08;;;;;;;;;;;;;;;;;;4878491;29;1037;-54
2023/07/14 05:28:35;;;;;;;;;;;;;;;;;;4877508;29;1665;-53
2023/07/14 05:31:04;;;;;;;;;;;;;;;;;;4877779;29;1062;-54
2023/07/14 05:33:32;;;;;;;;;;;;;;;;;;4877806;29;2039;-54
2023/07/14 05:35:59;;;;;;;;;;;;;;;;;;4877430;29;1143;-51
2023/07/14 05:38:29;;;;;;;;;;;;;;;;;;4877871;29;1232;-54
2023/07/14 05:40:56;;;;;;;;;;;;;;;;;;4877712;29;1282;-52
2023/07/14 05:43:26;;;;;;;;;;;;;;;;;;4877341;29;1163;-52
2023/07/14 05:45:56;;;;;;;;;;;;;;;;;;4877782;29;1165;-54
2023/07/14 05:48:23;;;;;;;;;;;;;;;;;;4877787;29;1202;-54
2023/07/14 05:50:51;;;;;;;;;;;;;;;;;;4877385;29;1297;-53
2023/07/14 05:53:18;;;;;;;;;;;;;;;;;;4861071;29;2002;-54
2023/07/14 05:55:46;;;;;;;;;;;;;;;;;;4877571;29;1307;-51
2023/07/14 05:58:14;;;;;;;;;;;;;;;;;;4877510;29;1168;-52
2023/07/14 06:00:42;;;;;;;;;;;;;;;;;;4878041;29;1100;-54
2023/07/14 06:03:12;;;;;;;;;;;;;;;;;;4877665;29;1161;-53
2023/07/14 06:05:40;;;;;;;;;;;;;;;;;;4877272;29;1395;-54
2023/07/14 06:08:07;;;;;;;;;;;;;;;;;;4877629;29;1028;-55
2023/07/14 06:10:35;;;;;;;;;;;;;;;;;;4878199;29;1050;-54
2023/07/14 06:13:03;;;;;;;;;;;;;;;;;;4878521;29;1911;-53
2023/07/14 06:15:30;;;;;;;;;;;;;;;;;;4881247;29;1076;-51
2023/07/14 06:17:57;;;;;;;;;;;;;;;;;;4881247;29;1330;-53
2023/07/14 06:20:25;;;;;;;;;;;;;;;;;;4881236;29;1205;-54
2023/07/14 06:22:53;;;;;;;;;;;;;;;;;;4880775;29;1309;-54
2023/07/14 06:25:21;;;;;;;;;;;;;;;;;;4867693;29;1386;-53
2023/07/14 06:27:49;;;;;;;;;;;;;;;;;;4862016;29;1317;-56
2023/07/14 06:30:17;;;;;;;;;;;;;;;;;;4862436;29;934;-54
2023/07/14 06:32:46;;;;;;;;;;;;;;;;;;4862487;29;1978;-55
2023/07/14 06:35:15;;;;;;;;;;;;;;;;;;4862409;29;1611;-55
2023/07/14 06:37:42;;;;;;;;;;;;;;;;;;4862177;29;1054;-54
2023/07/14 06:40:10;;;;;;;;;;;;;;;;;;4862206;29;1171;-55
2023/07/14 06:42:37;;;;;;;;;;;;;;;;;;4861655;29;1089;-55
2023/07/14 06:45:05;;;;;;;;;;;;;;;;;;4862149;29;1212;-55
2023/07/14 06:47:32;;;;;;;;;;;;;;;;;;4862126;29;1370;-56
2023/07/14 06:50:00;;;;;;;;;;;;;;;;;;4845166;29;1040;-56
2023/07/14 06:52:27;;;;;;;;;;;;;;;;;;4861854;29;1911;-55
2023/07/14 06:54:55;;;;;;;;;;;;;;;;;;4861932;29;1083;-55
2023/07/14 06:57:22;;;;;;;;;;;;;;;;;;4861298;29;1202;-56
2023/07/14 06:59:49;;;;;;;;;;;;;;;;;;4861744;29;1238;-55
2023/07/14 07:02:17;;;;;;;;;;;;;;;;;;4862157;29;1181;-54
2023/07/14 07:04:44;;;;;;;;;;;;;;;;;;4844677;29;1760;-56
2023/07/14 07:07:11;;;;;;;;;;;;;;;;;;4861784;29;1099;-55
2023/07/14 07:09:38;;;;;;;;;;;;;;;;;;4861641;29;1260;-55
2023/07/14 07:12:08;;;;;;;;;;;;;;;;;;4861129;29;1973;-56
2023/07/14 07:14:38;;;;;;;;;;;;;;;;;;4861690;29;1134;-57
2023/07/14 07:17:05;;;;;;;;;;;;;;;;;;4861319;29;1135;-55
2023/07/14 07:19:33;;;;;;;;;;;;;;;;;;4861020;29;1180;-56
2023/07/14 07:22:00;;;;;;;;;;;;;;;;;;4865758;29;1126;-56
2023/07/14 07:24:28;;;;;;;;;;;;;;;;;;4878793;29;1336;-58
2023/07/14 07:26:55;;;;;;;;;;;;;;;;;;4879380;29;1470;-55
2023/07/14 07:29:22;;;;;;;;;;;;;;;;;;4879988;29;1593;-55
2023/07/14 07:31:49;;;;;;;;;;;;;;;;;;4879927;29;1907;-59
2023/07/14 07:34:19;;;;;;;;;;;;;;;;;;4879692;29;1201;-53
2023/07/14 07:36:46;;;;;;;;;;;;;;;;;;4880284;29;1112;-57
2023/07/14 07:39:14;;;;;;;;;;;;;;;;;;4879878;29;1043;-55
2023/07/14 07:41:41;;;;;;;;;;;;;;;;;;4879424;29;1363;-56
2023/07/14 07:44:11;;;;;;;;;;;;;;;;;;4879508;29;1046;-56
2023/07/14 07:46:40;;;;;;;;;;;;;;;;;;4879538;29;1138;-56
2023/07/14 07:49:08;;;;;;;;;;;;;;;;;;4879252;29;1117;-57
2023/07/14 07:51:36;;;;;;;;;;;;;;;;;;4878852;29;952;-57
2023/07/14 07:54:04;;;;;;;;;;;;;;;;;;4878859;29;1907;-58
2023/07/14 07:56:32;;;;;;;;;;;;;;;;;;4878118;29;1448;-58
2023/07/14 07:58:59;;;;;;;;;;;;;;;;;;4878601;29;1103;-55
2023/07/14 08:01:28;;;;;;;;;;;;;;;;;;4878612;29;1116;-57
2023/07/14 08:03:55;;;;;;;;;;;;;;;;;;4878614;29;1044;-55
2023/07/14 08:06:24;;;;;;;;;;;;;;;;;;4878853;29;1381;-56
2023/07/14 08:08:51;;;;;;;;;;;;;;;;;;4878751;29;1115;-54
2023/07/14 08:11:19;;;;;;;;;;;;;;;;;;4878019;29;1192;-57
2023/07/14 08:13:46;;;;;;;;;;;;;;;;;;4878455;29;1911;-59
2023/07/14 08:16:13;;;;;;;;;;;;;;;;;;4878577;29;1068;-55
2023/07/14 08:18:41;;;;;;;;;;;;;;;;;;4878089;29;1138;-57
2023/07/14 08:21:08;;;;;;;;;;;;;;;;;;4878209;29;1198;-55
2023/07/14 08:23:40;;;;;;;;;;;;;;;;;;4878142;29;1180;-54
2023/07/14 08:26:08;;;;;;;;;;;;;;;;;;4859394;29;1235;-56
2023/07/14 08:28:35;;;;;;;;;;;;;;;;;;4859757;29;1463;-56
2023/07/14 08:31:04;;;;;;;;;;;;;;;;;;4859819;29;1394;-56
2023/07/14 08:33:31;;;;;;;;;;;;;;;;;;4858856;29;1931;-57
2023/07/14 08:36:01;;;;;;;;;;;;;;;;;;4859135;29;1153;-55
2023/07/14 08:38:30;;;;;;;;;;;;;;;;;;4859050;29;1246;-55
2023/07/14 08:41:09;;;;;;;;;;;;;;;;;;4858994;29;1009;-57
2023/07/14 08:43:39;;;;;;;;;;;;;;;;;;4859291;29;1121;-56
2023/07/14 08:46:15;;;;;;;;;;;;;;;;;;4859189;29;1230;-57
2023/07/14 08:48:48;;;;;;;;;;;;;;;;;;4859104;29;1098;-56
2023/07/14 08:51:22;;;;;;;;;;;;;;;;;;4859228;29;1080;-58
2023/07/14 08:53:52;;;;;;;;;;;;;;;;;;4859009;29;1911;-58
2023/07/14 08:56:19;;;;;;;;;;;;;;;;;;4859438;29;1031;-57
2023/07/14 08:58:48;;;;;;;;;;;;;;;;;;4859205;29;1169;-56
2023/07/14 09:01:15;;;;;;;;;;;;;;;;;;4858528;29;1088;-57
2023/07/14 09:03:44;;;;;;;;;;;;;;;;;;4859170;29;1179;-58
2023/07/14 09:06:18;;;;;;;;;;;;;;;;;;4863527;29;1167;-55
2023/07/14 09:08:45;;;;;;;;;;;;;;;;;;4877470;29;1327;-57
2023/07/14 09:11:22;;;;;;;;;;;;;;;;;;4877367;29;1014;-59
2023/07/14 09:14:12;;;;;;;;;;;;;;;;;;4877334;29;1976;-61
2023/07/14 09:16:46;;;;;;;;;;;;;;;;;;4842194;29;1279;-60
2023/07/14 09:19:22;;;;;;;;;;;;;;;;;;4877305;29;1094;-60
2023/07/14 09:22:00;;;;;;;;;;;;;;;;;;4877594;29;953;-57
2023/07/14 09:24:28;;;;;;;;;;;;;;;;;;4877020;29;1336;-60
2023/07/14 09:26:56;;;;;;;;;;;;;;;;;;4877404;29;1052;-60
2023/07/14 09:29:29;;;;;;;;;;;;;;;;;;4877446;29;1202;-59
2023/07/14 09:31:59;;;;;;;;;;;;;;;;;;4876994;29;1194;-60
2023/07/14 09:34:30;;;;;;;;;;;;;;;;;;4876951;29;1919;-60
2023/07/14 09:36:57;;;;;;;;;;;;;;;;;;4877136;29;1107;-60
2023/07/14 09:39:29;;;;;;;;;;;;;;;;;;4876759;29;1065;-60
2023/07/14 09:41:59;;;;;;;;;;;;;;;;;;4877249;29;1417;-60
2023/07/14 09:44:26;;;;;;;;;;;;;;;;;;4876801;29;1293;-59
2023/07/14 09:46:54;;;;;;;;;;;;;;;;;;4876918;29;1137;-60
2023/07/14 09:49:41;;;;;;;;;;;;;;;;;;4880429;29;1202;-60
2023/07/14 09:52:13;;;;;;;;;;;;;;;;;;4880717;29;1193;-59
2023/07/14 09:54:51;;;;;;;;;;;;;;;;;;4880235;29;1907;-59
2023/07/14 09:57:21;;;;;;;;;;;;;;;;;;4880554;29;1085;-59
2023/07/14 10:00:14;;;;;;;;;;;;;;;;;;4881025;29;846;-60
2023/07/14 10:02:42;;;;;;;;;;;;;;;;;;4880166;29;1181;-59
2023/07/14 10:05:34;;;;;;;;;;;;;;;;;;4880896;29;1116;-59
2023/07/14 10:08:05;;;;;;;;;;;;;;;;;;4870485;29;1431;-60
2023/07/14 10:10:34;;;;;;;;;;;;;;;;;;4880619;29;1037;-60
2023/07/14 10:13:14;;;;;;;;;;;;;;;;;;4880350;29;1906;-60
2023/07/14 10:15:49;;;;;;;;;;;;;;;;;;4879802;29;1176;-59
2023/07/14 10:18:17;;;;;;;;;;;;;;;;;;4880803;29;1272;-58
2023/07/14 10:20:55;;;;;;;;;;;;;;;;;;4880609;29;1093;-60
2023/07/14 10:23:24;;;;;;;;;;;;;;;;;;4880261;29;1090;-60
2023/07/14 10:25:53;;;;;;;;;;;;;;;;;;4880634;29;1308;-61
2023/07/14 10:28:24;;;;;;;;;;;;;;;;;;4880158;29;1180;-61
2023/07/14 10:31:17;;;;;;;;;;;;;;;;;;4879961;29;1151;-58
2023/07/14 10:33:48;;;;;;;;;;;;;;;;;;4860529;29;1982;-60
2023/07/14 10:36:18;;;;;;;;;;;;;;;;;;4861743;29;1105;-60
2023/07/14 10:38:50;;;;;;;;;;;;;;;;;;4861285;29;1186;-60
2023/07/14 10:41:18;;;;;;;;;;;;;;;;;;4863853;29;1197;-61
2023/07/14 10:44:07;;;;;;;;;;;;;;;;;;4879928;29;1121;-61
2023/07/14 10:46:37;;;;;;;;;;;;;;;;;;4863343;29;1510;-60
2023/07/14 10:49:13;;;;;;;;;;;;;;;;;;4879921;29;1223;-60
2023/07/14 10:51:52;;;;;;;;;;;;;;;;;;4879549;29;1142;-61
2023/07/14 10:54:39;;;;;;;;;;;;;;;;;;4878861;29;1903;-61
2023/07/14 10:57:13;;;;;;;;;;;;;;;;;;4879564;29;1707;-60
2023/07/14 10:59:44;;;;;;;;;;;;;;;;;;4879144;29;1279;-60
2023/07/14 11:02:19;;;;;;;;;;;;;;;;;;4879518;29;1162;-60
2023/07/14 11:04:49;;;;;;;;;;;;;;;;;;4879741;29;1246;-58
2023/07/14 11:07:20;;;;;;;;;;;;;;;;;;4879349;29;1351;-58
2023/07/14 11:09:47;;;;;;;;;;;;;;;;;;4879532;29;1036;-58
2023/07/14 11:12:28;;;;;;;;;;;;;;;;;;4879341;29;1405;-59
2023/07/14 11:14:59;;;;;;;;;;;;;;;;;;4878979;29;1914;-58
2023/07/14 11:17:45;;;;;;;;;;;;;;;;;;4879613;29;1225;-59
2023/07/14 11:20:28;;;;;;;;;;;;;;;;;;4879540;29;862;-52
2023/07/14 11:22:59;;;;;;;;;;;;;;;;;;4878942;29;1165;-58
2023/07/14 11:25:32;;;;;;;;;;;;;;;;;;4879329;29;1320;-57
2023/07/14 11:28:11;;;;;;;;;;;;;;;;;;4879316;29;1008;-59
2023/07/14 11:30:40;;;;;;;;;;;;;;;;;;4878831;29;1163;-59
2023/07/14 11:33:10;;;;;;;;;;;;;;;;;;4877964;29;1962;-59
2023/07/14 11:35:44;;;;;;;;;;;;;;;;;;4878925;29;993;-59
2023/07/14 11:38:12;;;;;;;;;;;;;;;;;;4878688;29;1049;-57
2023/07/14 11:40:41;;;;;;;;;;;;;;;;;;4879416;29;1298;-60
2023/07/14 11:43:13;;;;;;;;;;;;;;;;;;4879471;29;1130;-45
2023/07/14 11:45:41;;;;;;;;;;;;;;;;;;4878929;29;957;-48
2023/07/14 11:48:21;;;;;;;;;;;;;;;;;;4879568;29;998;-49
2023/07/14 11:51:01;;;;;;;;;;;;;;;;;;4879461;29;1207;-46
2023/07/14 11:53:32;;;;;;;;;;;;;;;;;;4878879;29;1903;-50
2023/07/14 11:56:16;;;;;;;;;;;;;;;;;;4879298;29;1284;-50
2023/07/14 11:58:44;;;;;;;;;;;;;;;;;;4878945;29;1634;-60
2023/07/14 20:47:27;;;;;;;;;;;;;;;;;;4882529;29;797;-89
2023/07/14 20:49:55;;;;;;;;;;;;;;;;;;4865343;29;1239;-89
2023/07/14 20:52:22;;;;;;;;;;;;;;;;;;4864326;29;1217;-88
2023/07/14 20:54:49;;;;;;;;;;;;;;;;;;4854215;29;1950;-89
2023/07/14 20:57:16;;;;;;;;;;;;;;;;;;4881052;29;1128;-89
2023/07/14 20:59:44;;;;;;;;;;;;;;;;;;4883809;29;1230;-91
2023/07/14 21:02:17;;;;;;;;;;;;;;;;;;4882883;29;1290;-88
2023/07/14 21:04:49;;;;;;;;;;;;;;;;;;4881669;29;1344;-90
2023/07/14 21:07:47;;;;;;;;;;;;;;;;;;4879454;29;1203;-90
2023/07/14 21:10:16;;;;;;;;;;;;;;;;;;4878422;29;1204;-90
2023/07/14 21:12:43;;;;;;;;;;;;;;;;;;4887555;29;1239;-91
2023/07/14 21:15:13;;;;;;;;;;;;;;;;;;4885694;29;2036;-92
2023/07/14 21:17:52;;;;;;;;;;;;;;;;;;4894400;29;1261;-90
2023/07/14 21:20:21;;;;;;;;;;;;;;;;;;4880223;29;1336;-93
2023/07/14 21:22:49;;;;;;;;;;;;;;;;;;4873316;29;1251;-89
2023/07/14 21:25:17;;;;;;;;;;;;;;;;;;4861634;29;1132;-92
2023/07/14 21:27:44;;;;;;;;;;;;;;;;;;4862150;29;1390;-90
2023/07/14 21:30:11;;;;;;;;;;;;;;;;;;4859605;29;1413;-90
2023/07/14 21:32:45;;;;;;;;;;;;;;;;;;4859800;29;1532;-90
2023/07/14 21:35:12;;;;;;;;;;;;;;;;;;4859687;29;1915;-91
2023/07/14 21:37:39;;;;;;;;;;;;;;;;;;4860443;29;1204;-84
2023/07/14 21:40:06;;;;;;;;;;;;;;;;;;4858720;29;1236;-84
2023/07/14 21:42:34;;;;;;;;;;;;;;;;;;4859852;29;1301;-92
2023/07/14 21:45:01;;;;;;;;;;;;;;;;;;4863584;29;1250;-91
2023/07/14 21:47:28;;;;;;;;;;;;;;;;;;4871878;29;1165;-90
2023/07/14 21:49:55;;;;;;;;;;;;;;;;;;4872014;29;1299;-91
2023/07/14 21:52:23;;;;;;;;;;;;;;;;;;4862313;29;1134;-90
2023/07/14 21:54:50;;;;;;;;;;;;;;;;;;4861185;29;1915;-92
2023/07/14 21:57:17;;;;;;;;;;;;;;;;;;4860808;29;883;-91
2023/07/14 21:59:44;;;;;;;;;;;;;;;;;;4861351;29;1288;-91
2023/07/14 22:02:13;;;;;;;;;;;;;;;;;;4859468;29;1129;-92
2023/07/14 22:04:40;;;;;;;;;;;;;;;;;;4860054;29;1356;-90
2023/07/14 22:07:08;;;;;;;;;;;;;;;;;;4860564;29;1251;-90
2023/07/14 22:09:35;;;;;;;;;;;;;;;;;;4864783;29;1268;-89
2023/07/14 22:12:07;;;;;;;;;;;;;;;;;;4870022;29;1382;-91
2023/07/14 22:14:35;;;;;;;;;;;;;;;;;;4860218;29;1915;-89
2023/07/14 22:17:02;;;;;;;;;;;;;;;;;;4858878;29;1368;-87
2023/07/14 22:19:30;;;;;;;;;;;;;;;;;;4859275;29;1221;-89
2023/07/14 22:21:58;;;;;;;;;;;;;;;;;;4859301;29;1218;-91
2023/07/14 22:24:25;;;;;;;;;;;;;;;;;;4859706;29;1256;-90
2023/07/14 22:26:58;;;;;;;;;;;;;;;;;;4859349;29;1252;-91
2023/07/14 22:29:25;;;;;;;;;;;;;;;;;;4859785;29;1336;-89
2023/07/14 22:31:52;;;;;;;;;;;;;;;;;;4859359;29;1239;-91
2023/07/14 22:34:19;;;;;;;;;;;;;;;;;;4859287;29;1978;-89
2023/07/14 22:36:46;;;;;;;;;;;;;;;;;;4858795;29;1323;-89
2023/07/14 22:39:13;;;;;;;;;;;;;;;;;;4859099;29;1367;-88
2023/07/14 22:41:41;;;;;;;;;;;;;;;;;;4858884;29;1253;-90
2023/07/14 22:44:08;;;;;;;;;;;;;;;;;;4859430;29;886;-90
2023/07/14 22:46:35;;;;;;;;;;;;;;;;;;4859373;29;1271;-85
2023/07/14 22:49:02;;;;;;;;;;;;;;;;;;4859123;29;1223;-91
2023/07/14 22:51:30;;;;;;;;;;;;;;;;;;4858730;29;1240;-89
2023/07/14 22:53:59;;;;;;;;;;;;;;;;;;4858826;29;2021;-88
2023/07/14 22:56:26;;;;;;;;;;;;;;;;;;4862271;29;1193;-90
2023/07/14 22:58:54;;;;;;;;;;;;;;;;;;4862690;29;1208;-88
2023/07/14 23:01:21;;;;;;;;;;;;;;;;;;4864342;29;1328;-88
2023/07/14 23:03:48;;;;;;;;;;;;;;;;;;4863180;29;1241;-89
2023/07/14 23:06:15;;;;;;;;;;;;;;;;;;4862134;29;1513;-92
2023/07/14 23:08:42;;;;;;;;;;;;;;;;;;4862012;29;1269;-91
2023/07/14 23:11:10;;;;;;;;;;;;;;;;;;4862122;29;1283;-90
2023/07/14 23:13:37;;;;;;;;;;;;;;;;;;4862327;29;1390;-90
2023/07/14 23:16:04;;;;;;;;;;;;;;;;;;4862870;29;1923;-90
2023/07/14 23:18:31;;;;;;;;;;;;;;;;;;4861929;29;1212;-91
2023/07/14 23:20:58;;;;;;;;;;;;;;;;;;4862287;29;1308;-90
2023/07/14 23:23:25;;;;;;;;;;;;;;;;;;4862358;29;1405;-91
2023/07/14 23:25:53;;;;;;;;;;;;;;;;;;4861898;29;1359;-93
2023/07/14 23:28:20;;;;;;;;;;;;;;;;;;4861928;29;1247;-91
2023/07/14 23:30:47;;;;;;;;;;;;;;;;;;4861639;29;1299;-90
2023/07/14 23:33:14;;;;;;;;;;;;;;;;;;4861802;29;1390;-89
2023/07/14 23:35:41;;;;;;;;;;;;;;;;;;4861977;29;1911;-90
2023/07/14 23:38:08;;;;;;;;;;;;;;;;;;4846532;29;1370;-91
2023/07/14 23:40:35;;;;;;;;;;;;;;;;;;4861551;29;1198;-89
2023/07/14 23:43:03;;;;;;;;;;;;;;;;;;4861559;29;944;-90
2023/07/14 23:45:35;;;;;;;;;;;;;;;;;;4861549;29;1352;-89
2023/07/14 23:48:02;;;;;;;;;;;;;;;;;;4861529;29;1416;-91
2023/07/14 23:50:29;;;;;;;;;;;;;;;;;;4861768;29;1288;-91
2023/07/14 23:52:56;;;;;;;;;;;;;;;;;;4861419;29;1203;-90
2023/07/14 23:55:23;;;;;;;;;;;;;;;;;;4861301;29;1982;-90
2023/07/14 23:57:50;;;;;;;;;;;;;;;;;;4861384;29;1322;-91
